createdAt,value
2022-09-07T00:00:18.314Z,48.07
2022-09-07T00:01:18.314Z,48.07
2022-09-07T00:02:18.292Z,48.07
2022-09-07T00:03:18.376Z,48.07
2022-09-07T00:04:18.334Z,48.07
2022-09-07T00:05:18.242Z,48.07
2022-09-07T00:06:18.231Z,47.96
2022-09-07T00:07:18.393Z,47.96
2022-09-07T00:08:18.195Z,47.96
2022-09-07T00:09:18.193Z,47.96
2022-09-07T00:10:18.193Z,48.07
2022-09-07T00:11:18.203Z,47.96
2022-09-07T00:12:18.154Z,47.96
2022-09-07T00:13:18.194Z,47.96
2022-09-07T00:14:18.143Z,47.96
2022-09-07T00:15:18.136Z,47.96
2022-09-07T00:16:18.208Z,47.96
2022-09-07T00:17:18.145Z,47.96
2022-09-07T00:18:18.107Z,47.96
2022-09-07T00:19:18.146Z,47.96
2022-09-07T00:20:18.086Z,47.96
2022-09-07T00:21:18.110Z,47.96
2022-09-07T00:22:18.064Z,47.96
2022-09-07T00:23:18.046Z,47.96
2022-09-07T00:24:18.049Z,47.96
2022-09-07T00:25:18.075Z,47.96
2022-09-07T00:26:18.106Z,47.96
2022-09-07T00:27:18.015Z,47.96
2022-09-07T00:28:18.008Z,47.96
2022-09-07T00:29:18.014Z,47.96
2022-09-07T00:30:17.990Z,47.96
2022-09-07T00:31:18.024Z,47.96
2022-09-07T00:32:17.958Z,47.96
2022-09-07T00:33:17.978Z,47.96
2022-09-07T00:34:17.935Z,47.96
2022-09-07T00:35:17.927Z,47.96
2022-09-07T00:36:17.927Z,47.96
2022-09-07T00:37:17.907Z,47.96
2022-09-07T00:38:18.857Z,47.96
2022-09-07T00:39:18.366Z,47.96
2022-09-07T00:40:17.914Z,47.96
2022-09-07T00:41:17.897Z,47.96
2022-09-07T00:42:17.855Z,47.96
2022-09-07T00:43:17.847Z,47.96
2022-09-07T00:44:17.857Z,47.96
2022-09-07T00:45:17.819Z,47.96
2022-09-07T00:46:18.448Z,47.86
2022-09-07T00:47:17.818Z,47.86
2022-09-07T00:48:17.826Z,47.86
2022-09-07T00:49:17.799Z,47.86
2022-09-07T00:50:17.778Z,47.86
2022-09-07T00:51:18.727Z,47.86
2022-09-07T00:52:17.778Z,47.86
2022-09-07T00:53:17.748Z,47.86
2022-09-07T00:54:17.739Z,47.86
2022-09-07T00:55:17.737Z,47.86
2022-09-07T00:56:17.784Z,47.86
2022-09-07T00:57:17.696Z,47.86
2022-09-07T00:58:17.747Z,47.86
2022-09-07T00:59:17.677Z,47.86
2022-09-07T01:00:17.698Z,47.86
2022-09-07T01:01:17.699Z,47.86
2022-09-07T01:02:17.806Z,47.86
2022-09-07T01:03:17.640Z,47.86
2022-09-07T01:04:17.970Z,47.86
2022-09-07T01:05:17.631Z,47.86
2022-09-07T01:06:17.620Z,47.86
2022-09-07T01:07:17.599Z,47.86
2022-09-07T01:08:17.599Z,47.86
2022-09-07T01:09:17.590Z,47.86
2022-09-07T01:10:17.766Z,47.86
2022-09-07T01:11:17.558Z,47.86
2022-09-07T01:12:17.548Z,47.86
2022-09-07T01:13:17.539Z,47.86
2022-09-07T01:14:17.548Z,47.86
2022-09-07T01:15:17.545Z,47.86
2022-09-07T01:16:17.539Z,47.86
2022-09-07T01:17:17.498Z,47.86
2022-09-07T01:18:17.488Z,47.86
2022-09-07T01:19:17.481Z,47.86
2022-09-07T01:20:17.947Z,47.86
2022-09-07T01:21:17.475Z,47.86
2022-09-07T01:22:17.451Z,47.86
2022-09-07T01:23:17.441Z,47.86
2022-09-07T01:24:17.431Z,47.86
2022-09-07T01:25:17.411Z,47.86
2022-09-07T01:26:17.533Z,47.86
2022-09-07T01:27:17.410Z,47.86
2022-09-07T01:28:17.389Z,47.86
2022-09-07T01:29:17.374Z,47.86
2022-09-07T01:30:17.414Z,47.86
2022-09-07T01:31:17.423Z,47.86
2022-09-07T01:32:17.340Z,47.77
2022-09-07T01:33:17.329Z,47.86
2022-09-07T01:34:17.350Z,47.86
2022-09-07T01:35:17.322Z,47.86
2022-09-07T01:36:17.531Z,47.86
2022-09-07T01:37:17.312Z,47.77
2022-09-07T01:38:17.289Z,47.86
2022-09-07T01:39:17.271Z,47.86
2022-09-07T01:40:17.261Z,47.77
2022-09-07T01:41:17.255Z,47.77
2022-09-07T01:42:17.261Z,47.77
2022-09-07T01:43:17.233Z,47.86
2022-09-07T01:44:17.234Z,47.77
2022-09-07T01:45:17.232Z,47.77
2022-09-07T01:46:18.217Z,47.77
2022-09-07T01:47:17.192Z,47.77
2022-09-07T01:48:17.363Z,47.77
2022-09-07T01:49:17.173Z,47.77
2022-09-07T01:50:17.163Z,47.77
2022-09-07T01:51:17.153Z,47.77
2022-09-07T01:52:17.143Z,47.77
2022-09-07T01:53:17.155Z,47.77
2022-09-07T01:54:17.142Z,47.77
2022-09-07T01:55:17.104Z,47.77
2022-09-07T01:56:17.101Z,47.77
2022-09-07T01:57:17.082Z,47.77
2022-09-07T01:58:17.102Z,47.77
2022-09-07T01:59:17.074Z,47.77
2022-09-07T02:00:17.085Z,47.77
2022-09-07T02:01:17.123Z,47.77
2022-09-07T02:02:17.081Z,47.77
2022-09-07T02:03:17.025Z,47.77
2022-09-07T02:04:17.025Z,47.77
2022-09-07T02:05:17.015Z,47.77
2022-09-07T02:06:17.055Z,47.77
2022-09-07T02:07:16.975Z,47.77
2022-09-07T02:08:16.975Z,47.77
2022-09-07T02:09:16.967Z,47.77
2022-09-07T02:10:17.912Z,47.77
2022-09-07T02:11:16.963Z,47.77
2022-09-07T02:12:16.933Z,47.77
2022-09-07T02:13:16.923Z,47.77
2022-09-07T02:14:16.918Z,47.77
2022-09-07T02:15:16.906Z,47.77
2022-09-07T02:16:16.950Z,47.77
2022-09-07T02:17:16.917Z,47.77
2022-09-07T02:18:16.886Z,47.77
2022-09-07T02:19:16.877Z,47.77
2022-09-07T02:20:16.867Z,47.77
2022-09-07T02:21:16.856Z,47.77
2022-09-07T02:22:16.857Z,47.77
2022-09-07T02:23:16.847Z,47.77
2022-09-07T02:24:16.814Z,47.77
2022-09-07T02:25:16.805Z,47.77
2022-09-07T02:26:17.460Z,47.77
2022-09-07T02:27:16.785Z,47.77
2022-09-07T02:28:16.773Z,47.77
2022-09-07T02:29:16.774Z,47.77
2022-09-07T02:30:16.795Z,47.77
2022-09-07T02:31:16.818Z,47.77
2022-09-07T02:32:16.736Z,47.77
2022-09-07T02:33:16.728Z,47.77
2022-09-07T02:34:16.719Z,47.77
2022-09-07T02:35:16.737Z,47.77
2022-09-07T02:36:16.708Z,47.77
2022-09-07T02:37:16.700Z,47.77
2022-09-07T02:38:16.677Z,47.77
2022-09-07T02:39:16.676Z,47.66
2022-09-07T02:40:16.646Z,47.77
2022-09-07T02:41:16.645Z,47.77
2022-09-07T02:42:16.629Z,47.77
2022-09-07T02:43:16.648Z,47.77
2022-09-07T02:44:16.608Z,47.77
2022-09-07T02:45:16.608Z,47.77
2022-09-07T02:46:16.683Z,47.77
2022-09-07T02:47:16.574Z,47.77
2022-09-07T02:48:16.596Z,47.77
2022-09-07T02:49:16.590Z,47.77
2022-09-07T02:50:16.546Z,47.77
2022-09-07T02:51:16.548Z,47.77
2022-09-07T02:52:16.527Z,47.77
2022-09-07T02:53:16.537Z,47.77
2022-09-07T02:54:16.539Z,47.77
2022-09-07T02:55:16.499Z,47.77
2022-09-07T02:56:16.498Z,47.77
2022-09-07T02:57:16.489Z,47.77
2022-09-07T02:58:16.540Z,47.77
2022-09-07T02:59:16.461Z,47.77
2022-09-07T03:00:16.469Z,47.77
2022-09-07T03:01:16.461Z,47.66
2022-09-07T03:02:17.419Z,47.77
2022-09-07T03:03:16.428Z,47.77
2022-09-07T03:04:16.457Z,47.77
2022-09-07T03:05:16.398Z,47.77
2022-09-07T03:07:12.321Z,47.77
2022-09-07T03:08:12.263Z,47.77
2022-09-07T03:09:12.264Z,47.77
2022-09-07T03:10:12.273Z,47.77
2022-09-07T03:11:12.241Z,47.77
2022-09-07T03:12:12.273Z,47.66
2022-09-07T03:13:12.224Z,47.77
2022-09-07T03:14:12.233Z,47.77
2022-09-07T03:15:12.226Z,47.77
2022-09-07T03:16:12.226Z,47.77
2022-09-07T03:17:12.176Z,47.77
2022-09-07T03:18:12.176Z,47.77
2022-09-07T03:19:13.182Z,47.77
2022-09-07T03:20:12.145Z,47.66
2022-09-07T03:21:12.195Z,47.77
2022-09-07T03:22:12.136Z,47.77
2022-09-07T03:23:12.114Z,47.77
2022-09-07T03:24:12.106Z,47.77
2022-09-07T03:25:12.094Z,47.77
2022-09-07T03:26:12.084Z,47.77
2022-09-07T03:27:12.126Z,47.77
2022-09-07T03:28:12.088Z,47.77
2022-09-07T03:29:12.066Z,47.77
2022-09-07T03:30:12.079Z,47.66
2022-09-07T03:31:12.092Z,47.77
2022-09-07T03:32:12.024Z,47.77
2022-09-07T03:33:12.027Z,47.77
2022-09-07T03:34:12.029Z,47.77
2022-09-07T03:35:13.784Z,47.77
2022-09-07T03:36:11.985Z,47.66
2022-09-07T03:37:11.965Z,47.77
2022-09-07T03:38:11.966Z,47.77
2022-09-07T03:39:11.996Z,47.77
2022-09-07T03:40:11.983Z,47.77
2022-09-07T03:41:11.965Z,47.77
2022-09-07T03:42:11.927Z,47.77
2022-09-07T03:43:11.917Z,47.77
2022-09-07T03:44:11.939Z,47.66
2022-09-07T03:45:11.887Z,47.77
2022-09-07T03:46:11.915Z,47.66
2022-09-07T03:47:11.886Z,47.77
2022-09-07T03:48:11.856Z,47.77
2022-09-07T03:49:11.845Z,47.77
2022-09-07T03:50:11.846Z,47.66
2022-09-07T03:51:11.836Z,47.66
2022-09-07T03:52:11.846Z,47.77
2022-09-07T03:53:11.806Z,47.66
2022-09-07T03:54:11.799Z,47.66
2022-09-07T03:55:11.799Z,47.77
2022-09-07T03:56:11.799Z,47.66
2022-09-07T03:57:11.768Z,47.77
2022-09-07T03:58:11.778Z,47.66
2022-09-07T03:59:11.748Z,47.66
2022-09-07T04:00:11.757Z,47.66
2022-09-07T04:01:11.814Z,47.66
2022-09-07T04:02:11.771Z,47.66
2022-09-07T04:03:11.707Z,47.66
2022-09-07T04:04:11.691Z,47.66
2022-09-07T04:05:11.714Z,47.66
2022-09-07T04:06:11.689Z,47.66
2022-09-07T04:07:11.657Z,47.66
2022-09-07T04:08:11.838Z,47.77
2022-09-07T04:09:11.639Z,47.66
2022-09-07T04:10:11.639Z,47.66
2022-09-07T04:11:11.629Z,47.66
2022-09-07T04:12:12.580Z,47.77
2022-09-07T04:13:11.610Z,47.66
2022-09-07T04:14:11.613Z,47.66
2022-09-07T04:15:11.591Z,47.66
2022-09-07T04:16:11.592Z,47.66
2022-09-07T04:17:11.627Z,47.66
2022-09-07T04:18:11.589Z,47.66
2022-09-07T04:19:11.538Z,47.77
2022-09-07T04:20:11.548Z,47.66
2022-09-07T04:21:11.518Z,47.66
2022-09-07T04:22:11.634Z,47.66
2022-09-07T04:23:11.499Z,47.77
2022-09-07T04:24:11.510Z,47.66
2022-09-07T04:25:11.493Z,47.66
2022-09-07T04:26:11.509Z,47.66
2022-09-07T04:27:11.464Z,47.66
2022-09-07T04:28:11.463Z,47.66
2022-09-07T04:29:11.480Z,47.66
2022-09-07T04:30:11.434Z,47.66
2022-09-07T04:31:11.507Z,47.66
2022-09-07T04:32:15.526Z,47.66
2022-09-07T04:33:11.399Z,47.66
2022-09-07T04:34:11.446Z,47.69
2022-09-07T04:35:11.371Z,47.66
2022-09-07T04:36:11.390Z,47.69
2022-09-07T04:37:11.442Z,47.66
2022-09-07T04:38:11.389Z,47.66
2022-09-07T04:39:11.369Z,47.66
2022-09-07T04:40:11.443Z,47.66
2022-09-07T04:41:11.325Z,47.66
2022-09-07T04:42:11.252Z,47.66
2022-09-07T04:43:11.230Z,47.66
2022-09-07T04:44:16.230Z,47.69
2022-09-07T04:45:11.229Z,47.66
2022-09-07T04:46:11.248Z,47.66
2022-09-07T04:47:11.330Z,47.69
2022-09-07T04:48:11.245Z,47.66
2022-09-07T04:49:11.240Z,47.66
2022-09-07T04:50:11.241Z,47.66
2022-09-07T04:51:11.212Z,47.66
2022-09-07T04:52:11.241Z,47.66
2022-09-07T04:53:11.202Z,47.69
2022-09-07T04:54:11.177Z,47.69
2022-09-07T04:55:11.183Z,47.66
2022-09-07T04:56:16.369Z,47.69
2022-09-07T04:57:12.173Z,47.66
2022-09-07T04:58:11.153Z,47.69
2022-09-07T04:59:11.132Z,47.69
2022-09-07T05:00:11.122Z,47.69
2022-09-07T05:01:11.163Z,47.69
2022-09-07T05:02:11.235Z,47.69
2022-09-07T05:03:11.042Z,47.66
2022-09-07T05:04:11.425Z,47.69
2022-09-07T05:05:11.012Z,47.69
2022-09-07T05:06:11.041Z,47.69
2022-09-07T05:07:11.061Z,47.66
2022-09-07T05:08:11.002Z,47.69
2022-09-07T05:09:10.984Z,47.66
2022-09-07T05:10:11.008Z,47.66
2022-09-07T05:11:10.955Z,47.69
2022-09-07T05:12:11.008Z,47.69
2022-09-07T05:13:10.945Z,47.69
2022-09-07T05:14:10.934Z,47.69
2022-09-07T05:15:10.946Z,47.69
2022-09-07T05:16:11.004Z,47.69
2022-09-07T05:17:10.952Z,47.69
2022-09-07T05:18:10.907Z,47.69
2022-09-07T05:19:10.874Z,47.69
2022-09-07T05:20:10.894Z,47.69
2022-09-07T05:21:10.853Z,47.66
2022-09-07T05:22:10.890Z,47.69
2022-09-07T05:23:10.857Z,47.66
2022-09-07T05:24:10.835Z,47.66
2022-09-07T05:25:10.827Z,47.66
2022-09-07T05:26:10.844Z,47.66
2022-09-07T05:27:10.885Z,47.66
2022-09-07T05:28:10.785Z,47.66
2022-09-07T05:31:19.524Z,50.38
2022-09-07T05:32:11.744Z,50.40
2022-09-07T05:33:10.806Z,50.92
2022-09-07T05:35:11.729Z,52.27
2022-09-07T05:36:10.718Z,53.17
2022-09-07T05:37:10.756Z,53.49
2022-09-07T05:38:10.698Z,53.59
2022-09-07T05:39:10.664Z,54.29
2022-09-07T05:40:10.725Z,54.61
2022-09-07T05:41:10.656Z,54.82
2022-09-07T05:42:10.659Z,55.11
2022-09-07T05:43:10.698Z,55.11
2022-09-07T05:45:11.625Z,55.41
2022-09-07T05:46:10.634Z,55.62
2022-09-07T05:47:10.676Z,55.71
2022-09-07T05:48:10.599Z,55.71
2022-09-07T05:49:10.598Z,55.91
2022-09-07T05:50:10.607Z,55.91
2022-09-07T05:51:10.553Z,56.11
2022-09-07T05:52:10.585Z,56.21
2022-09-07T05:53:10.537Z,56.31
2022-09-07T05:54:10.520Z,56.31
2022-09-07T05:55:28.943Z,56.51
2022-09-07T05:56:11.507Z,56.61
2022-09-07T05:57:10.486Z,56.71
2022-09-07T05:58:10.476Z,56.81
2022-09-07T05:59:10.459Z,57.01
2022-09-07T06:00:10.468Z,57.14
2022-09-07T06:01:10.485Z,57.24
2022-09-07T06:02:10.568Z,57.24
2022-09-07T06:03:10.541Z,57.14
2022-09-07T06:04:10.440Z,57.04
2022-09-07T06:05:10.402Z,57.34
2022-09-07T06:06:10.409Z,57.64
2022-09-07T06:07:21.497Z,58.24
2022-09-07T06:08:11.431Z,58.47
2022-09-07T06:09:10.369Z,58.56
2022-09-07T06:11:11.328Z,58.99
2022-09-07T06:12:10.367Z,59.39
2022-09-07T06:13:10.320Z,59.79
2022-09-07T06:14:10.357Z,60.22
2022-09-07T06:15:10.297Z,60.42
2022-09-07T06:16:10.326Z,60.62
2022-09-07T06:17:10.277Z,60.85
2022-09-07T06:18:10.267Z,60.85
2022-09-07T06:19:10.299Z,60.92
2022-09-07T06:20:10.242Z,60.92
2022-09-07T06:21:10.890Z,60.82
2022-09-07T06:22:10.230Z,60.82
2022-09-07T06:23:10.221Z,60.72
2022-09-07T06:24:10.240Z,60.92
2022-09-07T06:25:10.201Z,60.82
2022-09-07T06:26:10.199Z,60.72
2022-09-07T06:27:10.168Z,60.82
2022-09-07T06:28:10.158Z,60.72
2022-09-07T06:29:10.159Z,60.69
2022-09-07T06:30:10.188Z,60.49
2022-09-07T06:31:10.128Z,60.49
2022-09-07T06:33:11.119Z,60.39
2022-09-07T06:34:10.098Z,60.29
2022-09-07T06:35:10.119Z,60.39
2022-09-07T06:36:10.091Z,60.59
2022-09-07T06:37:10.061Z,61.32
2022-09-07T06:38:10.111Z,61.72
2022-09-07T06:39:10.059Z,61.65
2022-09-07T06:40:10.134Z,61.75
2022-09-07T06:42:11.009Z,61.98
2022-09-07T06:43:10.030Z,61.48
2022-09-07T06:44:10.001Z,61.28
2022-09-07T06:45:09.993Z,60.98
2022-09-07T06:47:11.942Z,60.65
2022-09-07T06:48:10.165Z,60.45
2022-09-07T06:49:09.982Z,60.25
2022-09-07T06:50:09.955Z,60.25
2022-09-07T06:51:09.950Z,60.05
2022-09-07T06:52:09.930Z,59.92
2022-09-07T06:55:10.891Z,59.72
2022-09-07T06:56:09.960Z,59.72
2022-09-07T06:57:10.006Z,59.49
2022-09-07T06:58:09.848Z,59.39
2022-09-07T06:59:09.864Z,59.19
2022-09-07T07:00:09.853Z,59.09
2022-09-07T07:01:09.897Z,58.99
2022-09-07T07:02:09.853Z,58.89
2022-09-07T07:03:09.877Z,58.99
2022-09-07T07:04:10.033Z,58.89
2022-09-07T07:05:09.793Z,58.80
2022-09-07T07:06:09.784Z,58.76
2022-09-07T07:07:09.754Z,58.76
2022-09-07T07:08:09.751Z,58.76
2022-09-07T07:09:09.891Z,59.36
2022-09-07T07:10:09.756Z,59.06
2022-09-07T07:11:09.711Z,59.06
2022-09-07T07:12:09.733Z,58.97
2022-09-07T07:13:09.712Z,58.97
2022-09-07T07:14:09.684Z,58.97
2022-09-07T07:15:09.703Z,58.97
2022-09-07T07:16:09.711Z,59.04
2022-09-07T07:17:09.665Z,59.04
2022-09-07T07:18:20.880Z,58.84
2022-09-07T07:19:10.642Z,58.84
2022-09-07T07:20:09.624Z,59.04
2022-09-07T07:21:09.613Z,58.84
2022-09-07T07:22:29.570Z,58.84
2022-09-07T07:23:10.592Z,58.84
2022-09-07T07:24:09.590Z,59.14
2022-09-07T07:25:09.743Z,59.21
2022-09-07T07:26:09.832Z,59.44
2022-09-07T07:27:09.542Z,59.11
2022-09-07T07:29:10.533Z,59.41
2022-09-07T07:30:09.535Z,59.41
2022-09-07T07:31:12.124Z,59.01
2022-09-07T07:32:09.517Z,58.91
2022-09-07T07:33:09.540Z,58.81
2022-09-07T07:34:09.558Z,58.71
2022-09-07T07:35:09.494Z,58.71
2022-09-07T07:36:09.474Z,58.61
2022-09-07T07:37:09.567Z,58.51
2022-09-07T07:42:10.394Z,58.11
2022-09-07T07:43:09.383Z,58.21
2022-09-07T07:44:09.374Z,58.21
2022-09-07T07:46:10.438Z,58.11
2022-09-07T07:47:09.355Z,58.01
2022-09-07T07:48:09.336Z,58.01
2022-09-07T07:49:09.336Z,57.91
2022-09-07T07:51:12.268Z,57.91
2022-09-07T07:54:10.276Z,57.61
2022-09-07T07:56:10.314Z,57.68
2022-09-07T07:57:09.255Z,57.48
2022-09-07T07:58:09.225Z,57.18
2022-09-07T07:59:11.562Z,56.98
2022-09-07T08:00:10.214Z,56.88
2022-09-07T08:01:09.269Z,56.56
2022-09-07T08:02:09.340Z,56.56
2022-09-07T08:03:09.185Z,56.76
2022-09-07T08:04:09.207Z,56.56
2022-09-07T08:05:09.177Z,56.56
2022-09-07T08:06:09.157Z,56.56
2022-09-07T08:08:05.922Z,56.36
2022-09-07T08:09:05.914Z,56.56
2022-09-07T08:10:05.875Z,56.46
2022-09-07T08:11:05.866Z,56.56
2022-09-07T08:12:05.868Z,56.66
2022-09-07T08:13:05.886Z,56.46
2022-09-07T08:14:05.866Z,56.66
2022-09-07T08:15:05.835Z,56.56
2022-09-07T08:16:05.875Z,56.66
2022-09-07T08:17:05.801Z,56.36
2022-09-07T08:18:05.800Z,56.46
2022-09-07T08:19:06.062Z,56.46
2022-09-07T08:20:05.773Z,57.03
2022-09-07T08:21:05.764Z,56.83
2022-09-07T08:22:05.743Z,56.53
2022-09-07T08:23:05.743Z,56.43
2022-09-07T08:24:05.736Z,56.43
2022-09-07T08:25:05.755Z,56.23
2022-09-07T08:26:05.724Z,56.33
2022-09-07T08:27:05.719Z,56.13
2022-09-07T08:28:05.724Z,55.93
2022-09-07T08:29:05.684Z,55.63
2022-09-07T08:30:05.663Z,55.31
2022-09-07T08:31:05.775Z,55.11
2022-09-07T08:32:05.656Z,54.71
2022-09-07T08:33:05.676Z,54.61
2022-09-07T08:34:05.675Z,54.51
2022-09-07T08:35:05.620Z,54.41
2022-09-07T08:36:05.664Z,54.51
2022-09-07T08:37:05.615Z,54.51
2022-09-07T08:38:05.606Z,54.38
2022-09-07T08:39:05.565Z,54.38
2022-09-07T08:40:06.607Z,54.28
2022-09-07T08:41:05.984Z,54.19
2022-09-07T08:42:05.623Z,54.28
2022-09-07T08:43:05.545Z,54.28
2022-09-07T08:44:05.524Z,54.19
2022-09-07T08:45:05.570Z,54.28
2022-09-07T08:46:05.508Z,54.19
2022-09-07T08:47:05.553Z,54.19
2022-09-07T08:48:05.540Z,54.08
2022-09-07T08:49:05.498Z,54.08
2022-09-07T08:50:05.487Z,53.99
2022-09-07T08:51:05.446Z,54.08
2022-09-07T08:52:05.440Z,53.99
2022-09-07T08:53:05.437Z,53.99
2022-09-07T08:54:05.426Z,53.89
2022-09-07T08:55:05.406Z,53.78
2022-09-07T08:56:05.475Z,53.89
2022-09-07T08:57:21.200Z,53.78
2022-09-07T08:58:06.366Z,53.78
2022-09-07T08:59:05.608Z,53.89
2022-09-07T09:00:05.358Z,53.78
2022-09-07T09:04:23.049Z,53.76
2022-09-07T09:05:21.786Z,53.76
2022-09-07T09:06:06.474Z,53.76
2022-09-07T09:07:05.423Z,53.86
2022-09-07T09:08:05.290Z,53.86
2022-09-07T09:09:05.278Z,53.76
2022-09-07T09:10:05.268Z,53.96
2022-09-07T09:11:05.247Z,53.86
2022-09-07T09:12:05.245Z,53.86
2022-09-07T09:13:05.227Z,54.06
2022-09-07T09:14:05.207Z,53.86
2022-09-07T09:15:05.230Z,53.96
2022-09-07T09:16:05.554Z,53.96
2022-09-07T09:17:05.207Z,53.96
2022-09-07T09:18:05.178Z,54.06
2022-09-07T09:19:05.188Z,53.96
2022-09-07T09:20:05.195Z,53.76
2022-09-07T09:21:05.150Z,54.06
2022-09-07T09:22:05.140Z,53.96
2022-09-07T09:23:06.039Z,54.16
2022-09-07T09:24:05.120Z,53.96
2022-09-07T09:25:05.109Z,54.16
2022-09-07T09:26:05.125Z,54.16
2022-09-07T09:27:05.086Z,54.16
2022-09-07T09:28:05.087Z,54.26
2022-09-07T09:29:05.057Z,54.26
2022-09-07T09:30:05.052Z,54.26
2022-09-07T09:31:05.163Z,54.56
2022-09-07T09:32:05.066Z,54.33
2022-09-07T09:33:05.591Z,54.24
2022-09-07T09:34:05.013Z,54.24
2022-09-07T09:35:05.029Z,54.13
2022-09-07T09:36:05.030Z,54.03
2022-09-07T09:37:04.969Z,54.13
2022-09-07T09:38:04.960Z,54.13
2022-09-07T09:39:05.069Z,54.13
2022-09-07T09:40:05.081Z,54.13
2022-09-07T09:41:04.938Z,54.03
2022-09-07T09:42:04.936Z,54.53
2022-09-07T09:43:04.909Z,54.73
2022-09-07T09:44:04.911Z,54.73
2022-09-07T09:45:04.931Z,54.73
2022-09-07T09:46:12.758Z,54.73
2022-09-07T09:48:05.879Z,54.63
2022-09-07T09:49:04.904Z,54.53
2022-09-07T09:50:04.860Z,54.43
2022-09-07T09:53:05.830Z,54.60
2022-09-07T09:54:04.800Z,54.60
2022-09-07T09:55:33.358Z,54.60
2022-09-07T09:56:05.847Z,54.60
2022-09-07T09:57:04.771Z,54.50
2022-09-07T09:59:55.292Z,54.50
2022-09-07T10:00:10.498Z,54.60
2022-09-07T10:01:22.349Z,54.60
2022-09-07T10:04:09.541Z,54.71
2022-09-07T10:05:05.702Z,54.60
2022-09-07T10:06:04.728Z,54.90
2022-09-07T10:07:04.682Z,54.90
2022-09-07T10:08:04.662Z,54.78
2022-09-07T10:09:04.651Z,54.68
2022-09-07T10:10:04.641Z,54.58
2022-09-07T10:11:04.623Z,54.58
2022-09-07T10:12:05.741Z,54.48
2022-09-07T10:13:04.626Z,54.58
2022-09-07T10:14:04.601Z,54.58
2022-09-07T10:15:04.581Z,54.58
2022-09-07T10:16:04.595Z,54.68
2022-09-07T10:17:04.592Z,54.78
2022-09-07T10:18:04.583Z,54.68
2022-09-07T10:19:04.574Z,54.68
2022-09-07T10:20:06.206Z,54.58
2022-09-07T10:21:04.524Z,54.48
2022-09-07T10:22:04.563Z,54.78
2022-09-07T10:23:05.513Z,54.68
2022-09-07T10:24:04.542Z,54.68
2022-09-07T10:25:04.483Z,54.78
2022-09-07T10:26:04.554Z,54.68
2022-09-07T10:27:04.482Z,54.88
2022-09-07T10:28:04.463Z,54.97
2022-09-07T10:29:07.998Z,54.88
2022-09-07T10:30:06.818Z,54.85
2022-09-07T10:31:04.476Z,54.55
2022-09-07T10:32:04.433Z,54.46
2022-09-07T10:33:04.405Z,54.46
2022-09-07T10:35:05.500Z,54.46
2022-09-07T10:36:04.544Z,54.35
2022-09-07T10:37:04.404Z,54.16
2022-09-07T10:38:04.356Z,54.13
2022-09-07T10:39:04.335Z,54.13
2022-09-07T10:40:04.405Z,54.43
2022-09-07T10:41:04.347Z,54.63
2022-09-07T10:42:04.317Z,54.53
2022-09-07T10:44:05.285Z,54.43
2022-09-07T10:45:04.279Z,54.46
2022-09-07T10:46:04.597Z,54.65
2022-09-07T10:47:04.267Z,54.55
2022-09-07T10:48:04.243Z,54.33
2022-09-07T10:49:04.242Z,54.43
2022-09-07T10:51:13.777Z,54.33
2022-09-07T10:52:05.220Z,54.53
2022-09-07T10:53:23.606Z,54.63
2022-09-07T10:55:05.186Z,54.33
2022-09-07T10:56:04.177Z,54.33
2022-09-07T10:57:05.157Z,54.33
2022-09-07T10:58:04.164Z,54.33
2022-09-07T10:59:04.649Z,54.23
2022-09-07T11:00:11.554Z,54.43
2022-09-07T11:01:05.135Z,54.33
2022-09-07T11:02:04.105Z,54.43
2022-09-07T11:04:05.133Z,54.43
2022-09-07T11:05:04.074Z,54.43
2022-09-07T11:06:04.155Z,54.43
2022-09-07T11:07:04.084Z,54.33
2022-09-07T11:08:04.047Z,54.33
2022-09-07T11:09:20.012Z,54.33
2022-09-07T11:10:05.128Z,54.21
2022-09-07T11:11:04.054Z,54.30
2022-09-07T11:12:04.542Z,54.00
2022-09-07T11:13:04.017Z,53.91
2022-09-07T11:14:13.015Z,53.61
2022-09-07T11:15:04.982Z,53.61
2022-09-07T11:16:04.054Z,53.61
2022-09-07T11:17:04.015Z,53.70
2022-09-07T11:18:03.948Z,53.80
2022-09-07T11:20:04.930Z,54.00
2022-09-07T11:21:03.943Z,54.00
2022-09-07T11:22:03.916Z,53.68
2022-09-07T11:23:03.889Z,53.78
2022-09-07T11:24:03.886Z,53.78
2022-09-07T11:26:04.907Z,53.68
2022-09-07T11:27:03.842Z,53.48
2022-09-07T11:28:03.829Z,53.26
2022-09-07T11:30:04.875Z,53.26
2022-09-07T11:31:03.820Z,53.36
2022-09-07T11:32:03.799Z,53.45
2022-09-07T11:33:03.796Z,53.45
2022-09-07T11:35:04.787Z,53.36
2022-09-07T11:36:06.576Z,53.36
2022-09-07T11:37:03.749Z,53.45
2022-09-07T11:38:03.736Z,53.38
2022-09-07T11:39:03.721Z,53.28
2022-09-07T11:40:03.763Z,53.26
2022-09-07T11:41:03.708Z,53.16
2022-09-07T11:42:42.587Z,53.16
2022-09-07T11:43:06.304Z,52.96
2022-09-07T11:44:03.659Z,52.79
2022-09-07T11:45:03.681Z,52.59
2022-09-07T11:46:03.797Z,52.59
2022-09-07T11:47:03.632Z,52.39
2022-09-07T11:48:03.620Z,52.19
2022-09-07T11:49:04.673Z,51.89
2022-09-07T11:50:03.605Z,51.89
2022-09-07T11:51:03.619Z,52.00
2022-09-07T11:52:06.606Z,52.00
2022-09-07T11:53:03.568Z,52.09
2022-09-07T11:54:03.559Z,52.49
2022-09-07T11:55:03.560Z,52.49
2022-09-07T11:56:03.784Z,52.69
2022-09-07T11:57:03.519Z,52.59
2022-09-07T11:58:03.523Z,52.59
2022-09-07T11:59:03.523Z,52.79
2022-09-07T12:00:03.505Z,52.59
2022-09-07T12:01:03.481Z,52.59
2022-09-07T12:02:03.503Z,52.59
2022-09-07T12:03:03.498Z,52.61
2022-09-07T12:04:03.590Z,52.72
2022-09-07T12:05:03.537Z,52.72
2022-09-07T12:06:03.473Z,52.81
2022-09-07T12:07:03.445Z,53.01
2022-09-07T12:08:03.411Z,53.11
2022-09-07T12:09:03.404Z,53.11
2022-09-07T12:10:03.411Z,53.01
2022-09-07T12:11:03.431Z,53.11
2022-09-07T12:12:05.066Z,53.01
2022-09-07T12:13:03.360Z,53.21
2022-09-07T12:14:03.351Z,53.21
2022-09-07T12:15:03.346Z,53.21
2022-09-07T12:16:03.418Z,53.21
2022-09-07T12:17:03.333Z,53.11
2022-09-07T12:18:03.381Z,53.31
2022-09-07T12:19:03.334Z,53.21
2022-09-07T12:20:03.307Z,53.01
2022-09-07T12:21:03.337Z,52.81
2022-09-07T12:22:03.343Z,52.81
2022-09-07T12:23:05.209Z,52.81
2022-09-07T12:24:03.245Z,52.72
2022-09-07T12:25:03.285Z,52.42
2022-09-07T12:26:03.692Z,52.31
2022-09-07T12:27:03.213Z,52.42
2022-09-07T12:28:03.853Z,52.22
2022-09-07T12:29:03.192Z,52.02
2022-09-07T12:30:03.198Z,52.12
2022-09-07T12:31:03.236Z,51.82
2022-09-07T12:33:04.243Z,51.12
2022-09-07T12:34:04.136Z,50.81
2022-09-07T12:35:03.149Z,50.83
2022-09-07T12:36:03.150Z,50.81
2022-09-07T12:37:03.122Z,50.93
2022-09-07T12:38:03.106Z,50.93
2022-09-07T12:39:03.168Z,51.03
2022-09-07T12:40:03.222Z,51.03
2022-09-07T12:41:03.075Z,50.73
2022-09-07T12:43:09.722Z,50.53
2022-09-07T12:44:04.046Z,50.43
2022-09-07T12:45:03.057Z,50.53
2022-09-07T12:46:03.183Z,50.40
2022-09-07T12:47:03.033Z,50.40
2022-09-07T12:48:04.567Z,50.53
2022-09-07T12:49:03.004Z,50.53
2022-09-07T12:50:02.985Z,50.60
2022-09-07T12:51:02.995Z,50.60
2022-09-07T12:52:13.932Z,50.60
2022-09-07T12:53:03.945Z,50.51
2022-09-07T12:54:02.954Z,50.40
2022-09-07T12:55:26.468Z,50.40
2022-09-07T12:56:21.227Z,50.31
2022-09-07T12:58:03.897Z,50.31
2022-09-07T12:59:02.887Z,50.21
2022-09-07T13:00:02.919Z,50.01
2022-09-07T13:01:05.565Z,49.71
2022-09-07T13:02:02.957Z,49.51
2022-09-07T13:03:03.890Z,49.41
2022-09-07T13:04:02.846Z,49.41
2022-09-07T13:05:02.854Z,49.41
2022-09-07T13:06:02.871Z,49.51
2022-09-07T13:07:03.238Z,49.21
2022-09-07T13:08:59.336Z,49.11
2022-09-07T13:09:59.337Z,48.62
2022-09-07T13:10:59.298Z,48.40
2022-09-07T13:11:59.288Z,48.40
2022-09-07T13:12:59.278Z,48.40
2022-09-07T13:14:04.538Z,48.60
2022-09-07T13:15:00.388Z,48.50
2022-09-07T13:15:59.253Z,48.20
2022-09-07T13:18:00.246Z,48.10
2022-09-07T13:18:59.206Z,48.00
2022-09-07T13:19:59.216Z,48.10
2022-09-07T13:20:59.176Z,47.90
2022-09-07T13:21:59.193Z,47.80
2022-09-07T13:22:59.157Z,47.61
2022-09-07T13:23:59.553Z,47.50
2022-09-07T13:24:59.149Z,47.50
2022-09-07T13:25:59.846Z,47.61
2022-09-07T13:26:59.152Z,47.80
2022-09-07T13:27:59.119Z,48.00
2022-09-07T13:28:59.128Z,48.10
2022-09-07T13:29:59.090Z,48.30
2022-09-07T13:30:59.130Z,48.40
2022-09-07T13:31:59.087Z,48.40
2022-09-07T13:33:14.324Z,48.60
2022-09-07T13:34:00.074Z,48.50
2022-09-07T13:34:59.060Z,48.20
2022-09-07T13:35:59.040Z,48.10
2022-09-07T13:36:59.190Z,48.10